createdAt,value
2024-01-20T00:03:02.983Z,4.10
2024-01-20T00:08:11.746Z,4.00
2024-01-20T00:13:15.631Z,4.50
2024-01-20T00:18:25.912Z,3.65
2024-01-20T00:23:29.747Z,4.18
2024-01-20T00:28:33.480Z,4.10
2024-01-20T00:33:43.901Z,4.07
2024-01-20T00:38:47.903Z,3.42
2024-01-20T00:43:51.744Z,3.25
2024-01-20T00:49:01.845Z,3.95
2024-01-20T00:54:10.529Z,4.03
2024-01-20T00:59:19.344Z,4.22
2024-01-20T01:04:29.451Z,2.33
2024-01-20T01:09:39.492Z,4.40
2024-01-20T01:14:43.308Z,2.65
2024-01-20T01:19:53.369Z,3.90
2024-01-20T01:25:02.478Z,3.92
2024-01-20T01:30:08.661Z,4.57
2024-01-20T01:35:19.005Z,3.80
2024-01-20T01:40:27.784Z,3.95
2024-01-20T01:45:31.963Z,2.83
2024-01-20T01:50:42.413Z,3.58
2024-01-20T01:55:52.540Z,3.80
2024-01-20T02:00:56.431Z,2.33
2024-01-20T02:06:01.721Z,2.60
2024-01-20T02:11:11.195Z,3.55
2024-01-20T02:16:14.967Z,3.55
2024-01-20T02:21:25.055Z,1.95
2024-01-20T02:26:35.117Z,3.53
2024-01-20T02:31:43.759Z,2.38
2024-01-20T02:36:53.077Z,4.63
2024-01-20T02:42:03.229Z,3.70
2024-01-20T02:47:11.922Z,4.57
2024-01-20T02:52:15.664Z,3.47
2024-01-20T02:57:25.818Z,5.28
2024-01-20T03:02:34.718Z,4.65
2024-01-20T03:07:43.380Z,5.15
2024-01-20T03:12:53.500Z,4.63
2024-01-20T03:18:02.412Z,3.65
2024-01-20T03:23:11.255Z,4.72
2024-01-20T03:28:21.273Z,4.75
2024-01-20T03:33:30.473Z,4.60
2024-01-20T03:38:39.188Z,4.00
2024-01-20T03:43:49.187Z,3.55
2024-01-20T03:48:59.061Z,2.33
2024-01-20T03:54:05.444Z,4.40
2024-01-20T03:59:15.521Z,5.22
2024-01-20T04:04:24.202Z,4.53
2024-01-20T04:09:32.916Z,3.67
2024-01-20T04:14:42.956Z,4.30
2024-01-20T04:19:51.953Z,3.80
2024-01-20T04:25:01.373Z,3.60
2024-01-20T04:30:08.035Z,3.50
2024-01-20T04:35:16.755Z,4.07
2024-01-20T04:40:25.396Z,2.60
2024-01-20T04:45:38.611Z,2.65
2024-01-20T04:50:42.357Z,3.83
2024-01-20T04:55:51.033Z,2.80
2024-01-20T05:01:01.109Z,2.60
2024-01-20T05:06:09.893Z,3.33
2024-01-20T05:11:18.673Z,4.25
2024-01-20T05:16:23.804Z,3.33
2024-01-20T05:21:27.605Z,3.22
2024-01-20T05:26:36.392Z,2.97
2024-01-20T05:31:46.488Z,4.15
2024-01-20T05:36:55.152Z,2.92
2024-01-20T05:42:03.924Z,2.97
2024-01-20T05:47:14.001Z,3.22
2024-01-20T05:52:22.684Z,2.70
2024-01-20T05:57:31.471Z,2.67
2024-01-20T06:02:41.526Z,3.85
2024-01-20T06:07:45.243Z,3.50
2024-01-20T06:12:48.906Z,3.88
2024-01-20T06:17:59.046Z,3.80
2024-01-20T06:23:02.811Z,3.67
2024-01-20T06:28:11.694Z,4.32
2024-01-20T06:33:16.806Z,2.63
2024-01-20T06:38:25.571Z,3.25
2024-01-20T06:43:29.245Z,2.50
2024-01-20T06:48:39.567Z,3.60
2024-01-20T06:53:44.144Z,4.15
2024-01-20T06:58:47.774Z,3.90
2024-01-20T07:03:58.481Z,5.05
2024-01-20T07:09:07.563Z,4.40
2024-01-20T07:14:11.311Z,4.45
2024-01-20T07:19:21.536Z,5.18
2024-01-20T07:24:25.303Z,3.00
2024-01-20T07:29:34.070Z,4.05
2024-01-20T07:34:39.318Z,3.30
2024-01-20T07:39:48.243Z,4.63
2024-01-20T07:44:51.987Z,5.38
2024-01-20T07:50:02.322Z,4.75
2024-01-20T07:55:11.152Z,5.57
2024-01-20T08:00:20.476Z,6.47
2024-01-20T08:05:33.656Z,5.25
2024-01-20T08:10:44.146Z,5.50
2024-01-20T08:15:54.149Z,6.28
2024-01-20T08:21:08.730Z,5.70
2024-01-20T08:26:19.683Z,5.30
2024-01-20T08:31:28.754Z,4.55
2024-01-20T08:36:40.031Z,5.95
2024-01-20T08:41:48.951Z,5.97
2024-01-20T08:46:57.632Z,6.07
2024-01-20T08:52:08.066Z,5.10
2024-01-20T08:57:17.102Z,3.53
2024-01-20T09:02:25.863Z,5.05
2024-01-20T09:07:30.912Z,5.35
2024-01-20T09:12:39.666Z,5.95
2024-01-20T09:17:43.541Z,5.93
2024-01-20T09:22:53.559Z,5.00
2024-01-20T09:28:04.850Z,4.25
2024-01-20T09:33:13.671Z,6.07
2024-01-20T09:38:19.121Z,6.80
2024-01-20T09:43:22.942Z,6.13
2024-01-20T09:48:31.819Z,25.27
2024-01-20T09:53:43.198Z,4.03
2024-01-20T09:58:46.974Z,3.95
2024-01-20T10:03:59.876Z,4.50
2024-01-20T10:09:05.119Z,4.55
2024-01-20T10:14:13.814Z,4.78
2024-01-20T10:19:17.582Z,4.07
2024-01-20T10:24:27.904Z,4.70
2024-01-20T10:29:36.655Z,4.97
2024-01-20T10:34:46.337Z,4.97
2024-01-20T10:39:52.798Z,4.60
2024-01-20T10:45:05.221Z,4.85
2024-01-20T10:50:10.375Z,5.07
2024-01-20T10:55:17.215Z,4.93
2024-01-20T11:00:22.637Z,4.60
2024-01-20T11:05:31.334Z,5.07
2024-01-20T11:10:42.164Z,5.15
2024-01-20T11:15:52.465Z,4.80
2024-01-20T11:21:03.257Z,4.07
2024-01-20T11:26:15.014Z,3.53
2024-01-20T11:31:27.705Z,5.15
2024-01-20T11:36:37.499Z,4.30
2024-01-20T11:41:42.658Z,7.35
2024-01-20T11:46:51.435Z,3.67
2024-01-20T11:52:00.273Z,8.80
2024-01-20T11:57:06.755Z,6.38
2024-01-20T12:02:15.741Z,5.13
2024-01-20T12:07:24.611Z,4.07
2024-01-20T12:12:34.897Z,5.03
2024-01-20T12:17:43.924Z,6.40
2024-01-20T12:22:53.017Z,4.88
2024-01-20T12:28:03.734Z,5.63
2024-01-20T12:33:12.519Z,4.68
2024-01-20T12:38:21.276Z,5.50
2024-01-20T12:43:26.308Z,4.72
2024-01-20T12:48:35.485Z,3.53
2024-01-20T12:53:39.503Z,5.35
2024-01-20T12:58:49.539Z,5.47
2024-01-20T13:03:58.246Z,3.45
2024-01-20T13:09:10.029Z,3.42
2024-01-20T13:19:30.369Z,4.75
2024-01-20T13:24:39.698Z,4.53
2024-01-20T13:29:49.952Z,4.47
2024-01-20T13:34:53.910Z,4.35
2024-01-20T13:40:05.296Z,5.25
2024-01-20T13:45:15.499Z,6.68
2024-01-20T13:50:25.670Z,6.05
2024-01-20T13:55:29.425Z,5.45
2024-01-20T14:00:34.638Z,5.25
2024-01-20T14:05:44.732Z,5.07
2024-01-20T14:10:53.513Z,4.32
2024-01-20T14:16:03.985Z,3.10
2024-01-20T14:21:12.744Z,4.00
2024-01-20T14:26:21.432Z,3.35
2024-01-20T14:31:31.741Z,4.22
2024-01-20T14:36:40.546Z,5.38
2024-01-20T14:41:44.550Z,3.90
2024-01-20T14:46:54.978Z,4.53
2024-01-20T14:52:03.726Z,4.22
2024-01-20T14:57:07.665Z,5.75
2024-01-20T15:02:12.804Z,3.10
2024-01-20T15:07:22.159Z,5.28
2024-01-20T15:12:25.874Z,6.68
2024-01-20T15:17:31.544Z,6.13
2024-01-20T15:22:35.815Z,7.47
2024-01-20T15:27:48.514Z,6.43
2024-01-20T15:32:58.776Z,5.00
2024-01-20T15:38:07.622Z,3.95
2024-01-20T15:43:16.353Z,4.93
2024-01-20T15:48:26.591Z,5.40
2024-01-20T15:53:30.389Z,7.95
2024-01-20T15:58:39.048Z,5.78
2024-01-20T16:03:49.302Z,6.10
2024-01-20T16:08:57.669Z,3.80
2024-01-20T16:14:01.657Z,6.30
2024-01-20T16:19:12.028Z,6.25
2024-01-20T16:24:21.264Z,6.55
2024-01-20T16:29:29.970Z,8.23
2024-01-20T16:34:35.184Z,9.85
2024-01-20T16:39:44.019Z,6.60
2024-01-20T16:44:52.893Z,7.78
2024-01-20T16:50:03.984Z,6.90
2024-01-20T16:55:14.749Z,6.63
2024-01-20T17:00:24.659Z,8.15
2024-01-20T17:05:34.788Z,8.95
2024-01-20T17:10:38.635Z,9.40
2024-01-20T17:15:47.387Z,7.03
2024-01-20T17:20:57.517Z,8.50
2024-01-20T17:26:06.377Z,9.00
2024-01-20T17:31:10.092Z,3.88
2024-01-20T17:36:15.226Z,7.63
2024-01-20T17:41:24.006Z,5.65
2024-01-20T17:46:32.832Z,8.15
2024-01-20T17:51:38.519Z,4.45
2024-01-20T17:56:47.884Z,7.43
2024-01-20T18:01:56.988Z,5.60
2024-01-20T18:07:07.823Z,7.32
2024-01-20T18:12:17.215Z,6.57
2024-01-20T18:17:21.014Z,6.05
2024-01-20T18:22:26.216Z,5.30
2024-01-20T18:27:30.105Z,6.22
2024-01-20T18:32:34.003Z,6.95
2024-01-20T18:37:39.239Z,8.48
2024-01-20T18:42:43.482Z,7.22
2024-01-20T18:47:47.941Z,8.63
2024-01-20T18:52:58.421Z,12.60
2024-01-20T18:58:07.363Z,9.35
2024-01-20T19:03:11.155Z,11.27
2024-01-20T19:08:21.327Z,11.55
2024-01-20T19:13:25.145Z,9.48
2024-01-20T19:18:35.905Z,10.07
2024-01-20T19:23:46.253Z,9.57
2024-01-20T19:28:55.074Z,9.63
2024-01-20T19:34:04.433Z,9.43
2024-01-20T19:39:14.955Z,9.40
2024-01-20T19:44:23.782Z,7.03
2024-01-20T19:49:32.615Z,9.52
2024-01-20T19:54:42.843Z,7.95
2024-01-20T19:59:51.578Z,8.38
2024-01-20T20:04:55.637Z,8.73
2024-01-20T20:10:06.527Z,8.68
2024-01-20T20:15:15.314Z,9.80
2024-01-20T20:20:25.912Z,8.50
2024-01-20T20:25:36.047Z,9.80
2024-01-20T20:30:47.066Z,9.48
2024-01-20T20:35:57.048Z,9.32
2024-01-20T20:41:07.201Z,10.68
2024-01-20T20:46:15.889Z,10.05
2024-01-20T20:51:25.801Z,7.22
2024-01-20T20:56:35.867Z,9.30
2024-01-20T21:01:45.221Z,10.40
2024-01-20T21:06:53.999Z,12.43
2024-01-20T21:12:04.067Z,7.97
2024-01-20T21:17:12.791Z,11.88
2024-01-20T21:22:21.813Z,8.10
2024-01-20T21:27:27.914Z,9.85
2024-01-20T21:32:32.172Z,12.27
2024-01-20T21:37:40.890Z,10.18
2024-01-20T21:42:51.081Z,9.90
2024-01-20T21:47:59.881Z,13.10
2024-01-20T21:53:03.841Z,15.05
2024-01-20T21:58:14.155Z,14.10
2024-01-20T22:03:23.960Z,13.00
2024-01-20T22:08:33.503Z,15.52
2024-01-20T22:13:38.557Z,13.85
2024-01-20T22:18:47.425Z,13.05
2024-01-20T22:23:56.395Z,11.38
2024-01-20T22:29:15.083Z,10.18
2024-01-20T22:34:33.312Z,10.60
2024-01-20T22:39:42.411Z,9.40
2024-01-20T22:44:47.453Z,9.82
2024-01-20T22:49:56.134Z,5.95
2024-01-20T22:55:05.490Z,9.13
2024-01-20T23:00:14.137Z,9.25
2024-01-20T23:05:23.678Z,9.88
2024-01-20T23:10:32.785Z,7.80
2024-01-20T23:15:37.963Z,9.20
2024-01-20T23:20:46.867Z,6.85
2024-01-20T23:25:50.697Z,6.85
2024-01-20T23:31:01.276Z,9.07
2024-01-20T23:36:05.521Z,6.78
2024-01-20T23:41:14.247Z,5.63
2024-01-20T23:46:24.322Z,7.35
2024-01-20T23:51:33.044Z,10.05
2024-01-20T23:56:41.768Z,9.68
